Time;durP1;ratioP1;P1;durP2;ratioP2;P2;SDS_P1;SDS_P2;PMS_P1;PMS_P2;Temp;Humidity;BMP_temperature;BMP_pressure;BME280_temperature;BME280_humidity;BME280_pressure;Samples;Min_cycle;Max_cycle;Signal;HPM_P1;HPM_P2
2023/12/21 00:02:22;;;;;;;0.97;0.70;;;;;;;;;;4892574;29;20592;-59
2023/12/21 00:04:50;;;;;;;0.60;0.53;;;;;;;;;;4894059;29;20233;-59
2023/12/21 00:07:17;;;;;;;0.60;0.60;;;;;;;;;;4894879;29;20231;-60
2023/12/21 00:09:44;;;;;;;0.77;0.50;;;;;;;;;;4894462;29;20236;-59
2023/12/21 00:12:12;;;;;;;0.83;0.60;;;;;;;;;;4894739;29;20216;-59
2023/12/21 00:14:39;;;;;;;0.60;0.60;;;;;;;;;;4891284;29;20212;-59
2023/12/21 00:17:06;;;;;;;0.50;0.50;;;;;;;;;;4894543;29;20897;-59
2023/12/21 00:19:33;;;;;;;0.90;0.70;;;;;;;;;;4894252;29;20235;-59
2023/12/21 00:22:04;;;;;;;0.70;0.70;;;;;;;;;;4893143;29;20308;-60
2023/12/21 00:24:31;;;;;;;0.57;0.57;;;;;;;;;;4893871;29;20358;-60
2023/12/21 00:26:59;;;;;;;2.60;0.70;;;;;;;;;;4894148;29;20301;-60
2023/12/21 00:29:26;;;;;;;0.83;0.50;;;;;;;;;;4893829;29;20220;-60
2023/12/21 00:31:53;;;;;;;0.90;0.53;;;;;;;;;;4893835;29;20213;-59
2023/12/21 00:34:20;;;;;;;4.07;0.73;;;;;;;;;;4894043;29;20237;-59
2023/12/21 00:36:47;;;;;;;0.60;0.60;;;;;;;;;;4894119;29;20228;-60
2023/12/21 00:39:15;;;;;;;0.30;0.30;;;;;;;;;;4891857;29;20205;-59
2023/12/21 00:41:43;;;;;;;0.47;0.43;;;;;;;;;;4884535;29;20210;-60
2023/12/21 00:44:10;;;;;;;0.37;0.30;;;;;;;;;;4876120;29;20244;-59
2023/12/21 00:46:37;;;;;;;0.30;0.30;;;;;;;;;;4891825;29;20221;-60
2023/12/21 00:49:04;;;;;;;1.83;0.43;;;;;;;;;;4893135;29;20212;-59
2023/12/21 00:51:31;;;;;;;0.27;0.27;;;;;;;;;;4893925;29;20213;-59
2023/12/21 00:53:58;;;;;;;0.43;0.43;;;;;;;;;;4887625;29;20210;-59
2023/12/21 00:56:26;;;;;;;0.40;0.40;;;;;;;;;;4891775;29;20668;-59
2023/12/21 00:58:53;;;;;;;0.20;0.20;;;;;;;;;;4892692;29;20672;-60
2023/12/21 01:01:20;;;;;;;0.33;0.30;;;;;;;;;;4893519;29;20216;-59
2023/12/21 01:03:47;;;;;;;0.67;0.30;;;;;;;;;;4893377;29;20224;-59
2023/12/21 01:06:14;;;;;;;0.93;0.30;;;;;;;;;;4892662;29;20256;-60
2023/12/21 01:08:41;;;;;;;0.20;0.20;;;;;;;;;;4887031;29;20685;-58
2023/12/21 01:11:08;;;;;;;0.10;0.10;;;;;;;;;;4893578;29;20213;-59
2023/12/21 01:13:37;;;;;;;0.33;0.30;;;;;;;;;;4893160;29;20261;-59
2023/12/21 01:16:04;;;;;;;0.10;0.10;;;;;;;;;;4893252;29;20205;-59
2023/12/21 01:18:31;;;;;;;1.07;0.20;;;;;;;;;;4876897;29;20349;-59
2023/12/21 01:20:58;;;;;;;0.20;0.20;;;;;;;;;;4893173;29;20245;-59
2023/12/21 01:23:26;;;;;;;0.10;0.10;;;;;;;;;;4892940;29;20212;-59
2023/12/21 01:25:53;;;;;;;0.43;0.10;;;;;;;;;;4893204;29;20240;-59
2023/12/21 01:28:20;;;;;;;0.10;0.10;;;;;;;;;;4888586;29;20205;-59
2023/12/21 01:30:48;;;;;;;0.23;0.10;;;;;;;;;;4892172;29;20221;-59
2023/12/21 01:33:15;;;;;;;0.10;0.10;;;;;;;;;;4889821;29;20217;-59
2023/12/21 01:35:43;;;;;;;0.20;0.20;;;;;;;;;;4886609;29;20213;-58
2023/12/21 01:38:10;;;;;;;1.33;0.20;;;;;;;;;;4892305;29;20684;-59
2023/12/21 01:40:37;;;;;;;1.30;0.10;;;;;;;;;;4893141;29;20225;-59
2023/12/21 01:43:04;;;;;;;0.87;0.20;;;;;;;;;;4892569;29;20239;-59
2023/12/21 01:45:31;;;;;;;0.10;0.10;;;;;;;;;;4892483;29;20236;-59
2023/12/21 01:48:01;;;;;;;0.20;0.20;;;;;;;;;;4892411;29;20213;-59
2023/12/21 01:50:29;;;;;;;0.00;0.00;;;;;;;;;;4892612;29;20307;-58
2023/12/21 01:52:56;;;;;;;0.10;0.10;;;;;;;;;;4892745;29;20217;-59
2023/12/21 01:55:23;;;;;;;0.10;0.10;;;;;;;;;;4892751;29;20212;-59
2023/12/21 01:57:50;;;;;;;0.10;0.10;;;;;;;;;;4892575;29;20209;-59
2023/12/21 02:00:18;;;;;;;0.20;0.10;;;;;;;;;;4888533;29;20225;-58
2023/12/21 02:02:45;;;;;;;0.10;0.10;;;;;;;;;;4892599;29;20751;-59
2023/12/21 02:05:13;;;;;;;0.10;0.10;;;;;;;;;;4891805;29;20717;-59
2023/12/21 02:07:40;;;;;;;0.10;0.10;;;;;;;;;;4890205;29;20216;-59
2023/12/21 02:10:09;;;;;;;0.07;0.07;;;;;;;;;;4889561;29;20225;-59
2023/12/21 02:12:36;;;;;;;0.00;0.00;;;;;;;;;;4891764;29;20217;-59
2023/12/21 02:15:03;;;;;;;0.10;0.10;;;;;;;;;;4882614;29;20652;-59
2023/12/21 02:17:31;;;;;;;0.10;0.10;;;;;;;;;;4892144;29;20577;-59
2023/12/21 02:19:58;;;;;;;0.10;0.10;;;;;;;;;;4891815;29;20216;-60
2023/12/21 02:22:28;;;;;;;0.77;0.10;;;;;;;;;;4892022;29;20249;-59
2023/12/21 02:24:57;;;;;;;0.10;0.10;;;;;;;;;;4890496;29;20240;-58
2023/12/21 02:27:24;;;;;;;0.00;0.00;;;;;;;;;;4890159;29;20220;-59
2023/12/21 02:29:51;;;;;;;0.10;0.10;;;;;;;;;;4880709;29;20695;-59
2023/12/21 02:32:18;;;;;;;0.10;0.10;;;;;;;;;;4892171;29;20221;-59
2023/12/21 02:34:45;;;;;;;0.10;0.10;;;;;;;;;;4891607;29;20201;-59
2023/12/21 02:37:12;;;;;;;0.10;0.10;;;;;;;;;;4892027;29;20220;-59
2023/12/21 02:39:39;;;;;;;0.10;0.10;;;;;;;;;;4881961;29;20217;-59
2023/12/21 02:42:07;;;;;;;0.00;0.00;;;;;;;;;;4882712;29;20220;-59
2023/12/21 02:44:34;;;;;;;0.00;0.00;;;;;;;;;;4884102;29;20210;-59
2023/12/21 02:47:01;;;;;;;0.00;0.00;;;;;;;;;;4878557;29;20229;-60
2023/12/21 02:49:28;;;;;;;0.30;0.30;;;;;;;;;;4879208;29;20586;-60
2023/12/21 02:51:56;;;;;;;0.00;0.00;;;;;;;;;;4879655;29;20213;-59
2023/12/21 02:54:23;;;;;;;0.10;0.10;;;;;;;;;;4880195;29;20312;-60
2023/12/21 02:56:50;;;;;;;1.03;0.10;;;;;;;;;;4880325;29;20221;-60
2023/12/21 02:59:18;;;;;;;0.10;0.10;;;;;;;;;;4878883;29;20597;-60
2023/12/21 03:01:45;;;;;;;0.10;0.10;;;;;;;;;;4879102;29;20254;-60
2023/12/21 03:04:13;;;;;;;0.00;0.00;;;;;;;;;;4881581;29;20232;-60
2023/12/21 03:06:40;;;;;;;1.13;0.13;;;;;;;;;;4882765;29;20238;-60
2023/12/21 03:09:07;;;;;;;0.83;0.10;;;;;;;;;;4877940;29;20210;-60
2023/12/21 03:11:34;;;;;;;0.00;0.00;;;;;;;;;;4877986;29;20214;-60
2023/12/21 03:14:01;;;;;;;0.07;0.07;;;;;;;;;;4877988;29;20739;-60
2023/12/21 03:16:29;;;;;;;0.20;0.10;;;;;;;;;;4884310;29;20673;-60
2023/12/21 03:18:56;;;;;;;0.50;0.10;;;;;;;;;;4880257;29;20225;-60
2023/12/21 03:21:23;;;;;;;0.00;0.00;;;;;;;;;;4882536;29;20251;-60
2023/12/21 03:23:50;;;;;;;0.10;0.10;;;;;;;;;;4881615;29;20221;-60
2023/12/21 03:26:17;;;;;;;0.10;0.10;;;;;;;;;;4878294;29;20248;-60
2023/12/21 03:28:45;;;;;;;0.10;0.10;;;;;;;;;;4882252;29;20864;-60
2023/12/21 03:31:12;;;;;;;0.00;0.00;;;;;;;;;;4884387;29;20209;-60
2023/12/21 03:33:41;;;;;;;0.10;0.10;;;;;;;;;;4884825;29;20239;-59
2023/12/21 03:36:08;;;;;;;0.10;0.10;;;;;;;;;;4883496;29;20205;-60
2023/12/21 03:38:35;;;;;;;0.10;0.10;;;;;;;;;;4885326;29;20209;-60
2023/12/21 03:41:02;;;;;;;0.00;0.00;;;;;;;;;;4880048;29;20213;-60
2023/12/21 03:43:29;;;;;;;0.10;0.10;;;;;;;;;;4877690;29;20216;-60
2023/12/21 03:45:56;;;;;;;0.10;0.10;;;;;;;;;;4879016;29;20243;-60
2023/12/21 03:48:23;;;;;;;0.03;0.03;;;;;;;;;;4879365;29;20212;-60
2023/12/21 03:50:51;;;;;;;0.10;0.10;;;;;;;;;;4878152;29;20221;-60
2023/12/21 03:53:19;;;;;;;0.10;0.10;;;;;;;;;;4877944;29;20216;-60
2023/12/21 03:55:46;;;;;;;0.10;0.10;;;;;;;;;;4884075;29;20213;-61
2023/12/21 03:58:13;;;;;;;0.20;0.20;;;;;;;;;;4882996;29;20221;-60
2023/12/21 04:00:40;;;;;;;0.10;0.10;;;;;;;;;;4880006;29;20237;-60
2023/12/21 04:03:07;;;;;;;0.10;0.10;;;;;;;;;;4881984;29;20209;-60
2023/12/21 04:05:34;;;;;;;0.10;0.10;;;;;;;;;;4883732;29;20228;-61
2023/12/21 04:08:02;;;;;;;0.10;0.10;;;;;;;;;;4885545;29;20209;-60
2023/12/21 04:10:29;;;;;;;1.60;0.10;;;;;;;;;;4884118;29;20644;-60
2023/12/21 04:12:56;;;;;;;0.57;0.30;;;;;;;;;;4884147;29;20221;-60
2023/12/21 04:15:23;;;;;;;0.10;0.10;;;;;;;;;;4883708;29;20202;-60
2023/12/21 04:17:50;;;;;;;0.10;0.10;;;;;;;;;;4882073;29;20732;-60
2023/12/21 04:20:17;;;;;;;1.07;0.20;;;;;;;;;;4882227;29;20254;-60
2023/12/21 04:22:43;;;;;;;0.10;0.10;;;;;;;;;;4880008;29;20229;-60
2023/12/21 04:25:12;;;;;;;0.10;0.10;;;;;;;;;;4877853;29;20437;-60
2023/12/21 04:27:39;;;;;;;0.10;0.10;;;;;;;;;;4879650;29;20244;-60
2023/12/21 04:30:07;;;;;;;0.10;0.10;;;;;;;;;;4880362;29;20257;-59
2023/12/21 04:32:34;;;;;;;0.10;0.10;;;;;;;;;;4877648;29;20225;-59
2023/12/21 04:35:01;;;;;;;0.00;0.00;;;;;;;;;;4876831;29;20676;-60
2023/12/21 04:37:28;;;;;;;0.10;0.10;;;;;;;;;;4877452;29;20209;-59
2023/12/21 04:39:55;;;;;;;0.03;0.03;;;;;;;;;;4883405;29;20217;-60
2023/12/21 04:42:23;;;;;;;0.10;0.10;;;;;;;;;;4882998;29;20222;-61
2023/12/21 04:44:50;;;;;;;1.07;0.30;;;;;;;;;;4881776;29;20283;-59
2023/12/21 04:47:17;;;;;;;0.20;0.20;;;;;;;;;;4880440;29;20238;-59
2023/12/21 04:49:44;;;;;;;0.10;0.10;;;;;;;;;;4882484;29;20205;-59
2023/12/21 04:52:12;;;;;;;0.37;0.10;;;;;;;;;;4882225;29;20214;-58
2023/12/21 04:54:40;;;;;;;0.10;0.10;;;;;;;;;;4883125;29;20230;-60
2023/12/21 04:57:07;;;;;;;0.00;0.00;;;;;;;;;;4887193;29;20670;-59
2023/12/21 04:59:35;;;;;;;0.57;0.07;;;;;;;;;;4887934;29;20220;-60
2023/12/21 05:02:02;;;;;;;1.33;0.10;;;;;;;;;;4881768;29;20701;-60
2023/12/21 05:04:29;;;;;;;0.00;0.00;;;;;;;;;;4881020;29;20209;-60
2023/12/21 05:06:57;;;;;;;1.60;0.10;;;;;;;;;;4884324;29;20712;-60
2023/12/21 05:09:24;;;;;;;0.00;0.00;;;;;;;;;;4887216;29;20246;-59
2023/12/21 05:11:52;;;;;;;0.10;0.10;;;;;;;;;;4881000;29;20670;-60
2023/12/21 05:14:19;;;;;;;0.07;0.07;;;;;;;;;;4882583;29;20228;-60
2023/12/21 05:16:48;;;;;;;1.00;0.10;;;;;;;;;;4885321;29;20241;-60
2023/12/21 05:19:15;;;;;;;0.00;0.00;;;;;;;;;;4885926;29;20228;-60
2023/12/21 05:21:42;;;;;;;0.00;0.00;;;;;;;;;;4886355;29;20244;-60
2023/12/21 05:24:09;;;;;;;0.00;0.00;;;;;;;;;;4893587;29;20680;-59
2023/12/21 05:26:36;;;;;;;0.10;0.10;;;;;;;;;;4893377;29;20617;-60
2023/12/21 05:29:03;;;;;;;0.20;0.20;;;;;;;;;;4893481;29;20228;-60
2023/12/21 05:31:30;;;;;;;0.10;0.10;;;;;;;;;;4893195;29;20650;-60
2023/12/21 05:33:58;;;;;;;0.10;0.10;;;;;;;;;;4893400;29;20212;-59
2023/12/21 05:36:25;;;;;;;0.10;0.10;;;;;;;;;;4893206;29;20213;-59
2023/12/21 05:38:53;;;;;;;0.30;0.20;;;;;;;;;;4893312;29;20220;-59
2023/12/21 05:41:20;;;;;;;0.10;0.10;;;;;;;;;;4893239;29;20244;-60
2023/12/21 05:43:47;;;;;;;0.30;0.20;;;;;;;;;;4892904;29;20622;-60
2023/12/21 05:46:14;;;;;;;0.20;0.20;;;;;;;;;;4892806;29;20237;-60
2023/12/21 05:48:41;;;;;;;0.10;0.10;;;;;;;;;;4891933;29;20216;-60
2023/12/21 05:51:10;;;;;;;0.10;0.10;;;;;;;;;;4888317;29;20201;-61
2023/12/21 05:53:37;;;;;;;0.10;0.10;;;;;;;;;;4889446;29;20209;-60
2023/12/21 05:56:04;;;;;;;0.10;0.10;;;;;;;;;;4874536;29;20688;-60
2023/12/21 05:58:31;;;;;;;0.00;0.00;;;;;;;;;;4887271;29;20232;-60
2023/12/21 06:00:58;;;;;;;0.10;0.10;;;;;;;;;;4892301;29;20680;-59
2023/12/21 06:03:25;;;;;;;0.10;0.10;;;;;;;;;;4892786;29;20201;-59
2023/12/21 06:05:52;;;;;;;0.10;0.10;;;;;;;;;;4892849;29;20248;-60
2023/12/21 06:08:20;;;;;;;1.23;0.13;;;;;;;;;;4892246;29;20212;-59
2023/12/21 06:10:48;;;;;;;0.10;0.10;;;;;;;;;;4892832;29;20213;-60
2023/12/21 06:13:15;;;;;;;0.20;0.20;;;;;;;;;;4893008;29;20240;-60
2023/12/21 06:15:42;;;;;;;0.20;0.20;;;;;;;;;;4891551;29;20217;-59
2023/12/21 06:18:09;;;;;;;0.10;0.10;;;;;;;;;;4892755;29;20265;-60
2023/12/21 06:20:36;;;;;;;0.10;0.10;;;;;;;;;;4884551;29;20269;-60
2023/12/21 06:23:04;;;;;;;0.00;0.00;;;;;;;;;;4892496;29;20237;-60
2023/12/21 06:25:32;;;;;;;0.00;0.00;;;;;;;;;;4892131;29;20950;-59
2023/12/21 06:27:59;;;;;;;0.10;0.10;;;;;;;;;;4892420;29;20217;-59
2023/12/21 06:30:26;;;;;;;0.10;0.10;;;;;;;;;;4892082;29;20217;-60
2023/12/21 06:32:53;;;;;;;0.63;0.00;;;;;;;;;;4891710;29;20633;-60
2023/12/21 06:35:20;;;;;;;0.10;0.10;;;;;;;;;;4890451;29;20219;-59
2023/12/21 06:37:47;;;;;;;0.20;0.20;;;;;;;;;;4888075;29;20212;-60
2023/12/21 06:40:15;;;;;;;0.20;0.20;;;;;;;;;;4891737;29;20232;-60
2023/12/21 06:42:43;;;;;;;0.20;0.20;;;;;;;;;;4890290;29;20205;-60
2023/12/21 06:45:11;;;;;;;0.20;0.20;;;;;;;;;;4890215;29;20217;-60
2023/12/21 06:47:38;;;;;;;0.17;0.17;;;;;;;;;;4891736;29;20262;-60
2023/12/21 06:50:06;;;;;;;0.73;0.30;;;;;;;;;;4891718;29;20231;-59
2023/12/21 06:52:33;;;;;;;0.20;0.20;;;;;;;;;;4891468;29;20206;-60
2023/12/21 06:55:00;;;;;;;0.10;0.10;;;;;;;;;;4892304;29;20232;-60
2023/12/21 06:57:28;;;;;;;0.10;0.10;;;;;;;;;;4891778;29;20232;-60
2023/12/21 06:59:56;;;;;;;0.10;0.10;;;;;;;;;;4891817;29;20227;-60
2023/12/21 07:02:23;;;;;;;0.20;0.20;;;;;;;;;;4891312;29;20224;-60
2023/12/21 07:04:50;;;;;;;0.20;0.20;;;;;;;;;;4891773;29;20610;-60
2023/12/21 07:07:17;;;;;;;0.10;0.10;;;;;;;;;;4891476;29;20236;-60
2023/12/21 07:09:44;;;;;;;0.33;0.10;;;;;;;;;;4890821;29;20214;-60
2023/12/21 07:12:11;;;;;;;0.10;0.10;;;;;;;;;;4891460;29;20705;-60
2023/12/21 07:14:40;;;;;;;0.20;0.20;;;;;;;;;;4891368;29;20213;-60
2023/12/21 07:17:08;;;;;;;0.00;0.00;;;;;;;;;;4891033;29;20642;-60
2023/12/21 07:19:37;;;;;;;0.13;0.13;;;;;;;;;;4891522;29;20249;-60
2023/12/21 07:22:05;;;;;;;0.10;0.10;;;;;;;;;;4891443;29;20260;-60
2023/12/21 07:24:32;;;;;;;0.20;0.10;;;;;;;;;;4891337;29;20648;-60
2023/12/21 07:26:59;;;;;;;0.10;0.10;;;;;;;;;;4874194;29;20234;-61
2023/12/21 07:29:26;;;;;;;0.10;0.10;;;;;;;;;;4888686;29;20216;-60
2023/12/21 07:31:53;;;;;;;2.77;0.10;;;;;;;;;;4891148;29;20272;-62
2023/12/21 07:34:22;;;;;;;0.10;0.10;;;;;;;;;;4891332;29;20241;-60
2023/12/21 07:36:49;;;;;;;0.10;0.10;;;;;;;;;;4890907;29;20215;-60
2023/12/21 07:39:16;;;;;;;2.00;0.20;;;;;;;;;;4889061;29;20221;-60
2023/12/21 07:41:43;;;;;;;0.10;0.10;;;;;;;;;;4890850;29;20220;-60
2023/12/21 07:44:10;;;;;;;0.10;0.10;;;;;;;;;;4890868;29;20209;-61
2023/12/21 07:46:37;;;;;;;0.10;0.10;;;;;;;;;;4890666;29;20243;-60
2023/12/21 07:49:04;;;;;;;0.10;0.10;;;;;;;;;;4888397;29;20680;-60
2023/12/21 07:51:33;;;;;;;0.10;0.10;;;;;;;;;;4872541;29;20296;-61
2023/12/21 07:54:00;;;;;;;1.50;0.10;;;;;;;;;;4879991;29;20340;-61
2023/12/21 07:56:27;;;;;;;0.20;0.20;;;;;;;;;;4890977;29;20555;-61
2023/12/21 07:58:55;;;;;;;0.10;0.10;;;;;;;;;;4891092;29;20303;-61
2023/12/21 08:01:22;;;;;;;0.10;0.10;;;;;;;;;;4890352;29;20321;-61
2023/12/21 08:03:49;;;;;;;0.10;0.10;;;;;;;;;;4890674;29;20204;-61
2023/12/21 08:06:22;;;;;;;0.10;0.10;;;;;;;;;;4882396;29;20217;-61
2023/12/21 08:08:52;;;;;;;0.10;0.10;;;;;;;;;;4872726;29;20218;-61
2023/12/21 08:11:19;;;;;;;0.10;0.10;;;;;;;;;;4890890;29;20213;-61
2023/12/21 08:13:46;;;;;;;0.10;0.10;;;;;;;;;;4872390;29;20214;-61
2023/12/21 08:16:13;;;;;;;0.17;0.17;;;;;;;;;;4889133;29;20214;-61
2023/12/21 08:18:40;;;;;;;0.33;0.10;;;;;;;;;;4890320;29;20289;-61
2023/12/21 08:21:07;;;;;;;0.13;0.13;;;;;;;;;;4891689;29;20308;-61
2023/12/21 08:23:34;;;;;;;0.10;0.10;;;;;;;;;;4893771;29;20207;-61
2023/12/21 08:26:04;;;;;;;0.20;0.20;;;;;;;;;;4883726;29;20225;-61
2023/12/21 08:28:31;;;;;;;0.67;0.10;;;;;;;;;;4893508;29;20236;-61
2023/12/21 08:30:58;;;;;;;0.23;0.23;;;;;;;;;;4890404;29;20213;-61
2023/12/21 08:33:25;;;;;;;0.30;0.30;;;;;;;;;;4891638;29;20223;-60
2023/12/21 08:35:53;;;;;;;0.20;0.20;;;;;;;;;;4893986;29;20217;-62
2023/12/21 08:38:20;;;;;;;0.10;0.10;;;;;;;;;;4894331;29;20372;-60
2023/12/21 08:40:47;;;;;;;0.30;0.20;;;;;;;;;;4894345;29;20227;-63
2023/12/21 08:43:16;;;;;;;0.10;0.10;;;;;;;;;;4882146;29;20209;-60
2023/12/21 08:45:43;;;;;;;0.10;0.10;;;;;;;;;;4879574;29;20208;-59
2023/12/21 08:48:10;;;;;;;1.13;0.20;;;;;;;;;;4893729;29;20229;-61
2023/12/21 08:50:37;;;;;;;0.20;0.20;;;;;;;;;;4893624;29;20224;-61
2023/12/21 08:53:04;;;;;;;0.10;0.10;;;;;;;;;;4893803;29;20209;-61
2023/12/21 08:55:31;;;;;;;0.43;0.20;;;;;;;;;;4893749;29;20224;-61
2023/12/21 08:57:58;;;;;;;0.10;0.10;;;;;;;;;;4893376;29;20213;-61
2023/12/21 09:00:26;;;;;;;0.10;0.10;;;;;;;;;;4890877;29;20201;-61
2023/12/21 09:02:53;;;;;;;0.20;0.20;;;;;;;;;;4893557;29;20225;-61
2023/12/21 09:05:20;;;;;;;0.20;0.20;;;;;;;;;;4893279;29;20232;-61
2023/12/21 09:07:48;;;;;;;0.20;0.20;;;;;;;;;;4893382;29;20237;-60
2023/12/21 09:10:15;;;;;;;0.10;0.10;;;;;;;;;;4893171;29;20210;-61
2023/12/21 09:12:42;;;;;;;0.10;0.10;;;;;;;;;;4892651;29;20224;-60
2023/12/21 09:15:09;;;;;;;0.10;0.10;;;;;;;;;;4891399;29;20209;-61
2023/12/21 09:17:38;;;;;;;0.27;0.10;;;;;;;;;;4893017;29;20255;-61
2023/12/21 09:20:05;;;;;;;0.13;0.13;;;;;;;;;;4893140;29;20671;-61
2023/12/21 09:22:33;;;;;;;0.07;0.07;;;;;;;;;;4892926;29;20731;-61
2023/12/21 09:25:01;;;;;;;0.10;0.10;;;;;;;;;;4892475;29;20235;-61
2023/12/21 09:27:30;;;;;;;0.10;0.10;;;;;;;;;;4892839;29;20269;-60
2023/12/21 09:29:58;;;;;;;0.10;0.10;;;;;;;;;;4892942;29;20224;-61
2023/12/21 09:32:25;;;;;;;0.10;0.10;;;;;;;;;;4891562;29;20261;-61
2023/12/21 09:34:53;;;;;;;0.10;0.10;;;;;;;;;;4892879;29;20217;-61
2023/12/21 09:37:20;;;;;;;0.10;0.10;;;;;;;;;;4892961;29;20209;-61
2023/12/21 09:39:47;;;;;;;0.20;0.13;;;;;;;;;;4892936;29;20680;-61
2023/12/21 09:42:16;;;;;;;0.10;0.10;;;;;;;;;;4892876;29;20220;-61
2023/12/21 09:44:44;;;;;;;0.10;0.10;;;;;;;;;;4875926;29;20248;-61
2023/12/21 09:47:13;;;;;;;0.10;0.10;;;;;;;;;;4872200;29;20248;-61
2023/12/21 09:49:41;;;;;;;0.10;0.10;;;;;;;;;;4871259;29;20210;-61
2023/12/21 09:52:10;;;;;;;0.10;0.10;;;;;;;;;;4875802;29;20220;-61
2023/12/21 09:54:38;;;;;;;0.00;0.00;;;;;;;;;;4893025;29;20956;-63
2023/12/21 09:57:05;;;;;;;0.10;0.10;;;;;;;;;;4892545;29;20213;-60
2023/12/21 09:59:33;;;;;;;0.10;0.10;;;;;;;;;;4889761;29;20208;-61
2023/12/21 10:02:00;;;;;;;0.30;0.10;;;;;;;;;;4892371;29;20562;-61
2023/12/21 10:04:27;;;;;;;0.10;0.10;;;;;;;;;;4892542;29;20209;-60
2023/12/21 10:06:54;;;;;;;0.20;0.10;;;;;;;;;;4892505;29;20217;-61
2023/12/21 10:09:23;;;;;;;0.10;0.10;;;;;;;;;;4892450;29;20225;-67
2023/12/21 10:11:50;;;;;;;0.83;0.10;;;;;;;;;;4892505;29;20224;-60
2023/12/21 10:14:19;;;;;;;0.10;0.10;;;;;;;;;;4891422;29;20221;-60
2023/12/21 10:16:46;;;;;;;0.10;0.10;;;;;;;;;;4892370;29;20469;-60
2023/12/21 10:19:13;;;;;;;0.00;0.00;;;;;;;;;;4892546;29;20244;-61
2023/12/21 10:21:40;;;;;;;0.00;0.00;;;;;;;;;;4892251;29;20251;-61
2023/12/21 10:24:07;;;;;;;0.00;0.00;;;;;;;;;;4891749;29;20786;-60
2023/12/21 10:26:44;;;;;;;0.10;0.10;;;;;;;;;;4892325;29;20440;-62
2023/12/21 10:29:11;;;;;;;0.00;0.00;;;;;;;;;;4891846;29;20278;-62
2023/12/21 10:31:38;;;;;;;0.10;0.10;;;;;;;;;;4891717;29;20220;-65
2023/12/21 10:34:09;;;;;;;0.10;0.10;;;;;;;;;;4889318;29;20217;-61
2023/12/21 10:36:39;;;;;;;0.00;0.00;;;;;;;;;;4890116;29;20225;-61
2023/12/21 10:39:06;;;;;;;0.10;0.10;;;;;;;;;;4890127;29;20209;-61
2023/12/21 10:41:33;;;;;;;0.63;0.63;;;;;;;;;;4891138;29;20689;-61
2023/12/21 10:44:02;;;;;;;0.10;0.10;;;;;;;;;;4890579;29;20213;-61
2023/12/21 10:46:31;;;;;;;0.10;0.10;;;;;;;;;;4890303;29;20220;-61
2023/12/21 10:48:59;;;;;;;0.23;0.20;;;;;;;;;;4890732;29;20275;-61
2023/12/21 10:51:28;;;;;;;0.20;0.20;;;;;;;;;;4890548;29;20225;-61
2023/12/21 10:53:56;;;;;;;0.13;0.13;;;;;;;;;;4890696;29;20216;-61
2023/12/21 10:56:23;;;;;;;0.10;0.10;;;;;;;;;;4890525;29;20213;-61
2023/12/21 10:58:50;;;;;;;0.30;0.30;;;;;;;;;;4888791;29;20213;-61
2023/12/21 11:01:20;;;;;;;3.90;0.40;;;;;;;;;;4871400;29;20217;-61
2023/12/21 11:03:48;;;;;;;0.10;0.10;;;;;;;;;;4878495;29;20274;-64
2023/12/21 11:06:15;;;;;;;0.20;0.20;;;;;;;;;;4876888;29;20217;-61
2023/12/21 11:08:43;;;;;;;0.20;0.20;;;;;;;;;;4882971;29;20232;-61
2023/12/21 11:11:10;;;;;;;0.20;0.20;;;;;;;;;;4888952;29;20217;-61
2023/12/21 11:13:40;;;;;;;0.10;0.10;;;;;;;;;;4879261;29;20218;-61
2023/12/21 11:16:08;;;;;;;0.63;0.10;;;;;;;;;;4871256;29;20209;-61
2023/12/21 11:18:37;;;;;;;0.27;0.10;;;;;;;;;;4870497;29;20248;-61
2023/12/21 11:21:05;;;;;;;0.10;0.10;;;;;;;;;;4870094;29;20249;-61
2023/12/21 11:23:33;;;;;;;0.20;0.20;;;;;;;;;;4884014;29;20439;-61
2023/12/21 11:26:00;;;;;;;0.10;0.10;;;;;;;;;;4889817;29;20219;-61
2023/12/21 11:28:30;;;;;;;0.10;0.10;;;;;;;;;;4889416;29;20248;-61
2023/12/21 11:30:57;;;;;;;0.10;0.10;;;;;;;;;;4880653;29;20273;-61
2023/12/21 11:33:29;;;;;;;0.10;0.10;;;;;;;;;;4871014;29;20438;-61
2023/12/21 11:35:57;;;;;;;0.00;0.00;;;;;;;;;;4870581;29;20498;-61
2023/12/21 11:38:25;;;;;;;0.00;0.00;;;;;;;;;;4882657;29;20328;-61
2023/12/21 11:40:52;;;;;;;0.00;0.00;;;;;;;;;;4888643;29;20272;-61
2023/12/21 11:43:22;;;;;;;3.90;0.10;;;;;;;;;;4887110;29;20209;-61
2023/12/21 11:45:51;;;;;;;0.00;0.00;;;;;;;;;;4879607;29;20216;-61
2023/12/21 11:48:20;;;;;;;0.10;0.10;;;;;;;;;;4870660;29;20362;-61
2023/12/21 11:50:47;;;;;;;0.10;0.10;;;;;;;;;;4886853;29;20209;-61
2023/12/21 11:53:16;;;;;;;0.20;0.03;;;;;;;;;;4889312;29;20221;-60
2023/12/21 11:55:44;;;;;;;0.10;0.10;;;;;;;;;;4889465;29;20213;-61
2023/12/21 11:58:16;;;;;;;0.10;0.10;;;;;;;;;;4886153;29;20205;-61
2023/12/21 12:00:46;;;;;;;0.00;0.00;;;;;;;;;;4889913;29;20751;-60
2023/12/21 12:03:13;;;;;;;0.00;0.00;;;;;;;;;;4880162;29;20239;-61
2023/12/21 12:05:40;;;;;;;0.00;0.00;;;;;;;;;;4886407;29;20215;-60
2023/12/21 12:08:08;;;;;;;0.10;0.10;;;;;;;;;;4889928;29;20248;-61
2023/12/21 12:10:36;;;;;;;0.70;0.37;;;;;;;;;;4886745;29;20224;-61
2023/12/21 12:13:03;;;;;;;0.10;0.10;;;;;;;;;;4862503;29;20285;-61
2023/12/21 12:15:30;;;;;;;0.10;0.10;;;;;;;;;;4850126;29;20594;-60
2023/12/21 12:17:57;;;;;;;0.10;0.10;;;;;;;;;;4846597;29;20246;-61
2023/12/21 12:20:25;;;;;;;0.10;0.10;;;;;;;;;;4842253;29;20227;-61
2023/12/21 12:22:52;;;;;;;0.10;0.10;;;;;;;;;;4860251;29;20250;-61
2023/12/21 12:25:20;;;;;;;0.30;0.20;;;;;;;;;;4860454;29;20209;-61
2023/12/21 12:27:48;;;;;;;0.10;0.10;;;;;;;;;;4860263;29;20736;-61
2023/12/21 12:30:17;;;;;;;0.30;0.10;;;;;;;;;;4862494;29;20237;-61
2023/12/21 12:32:44;;;;;;;0.10;0.10;;;;;;;;;;4858506;29;20218;-60
2023/12/21 12:35:12;;;;;;;0.10;0.10;;;;;;;;;;4857247;29;20218;-60
2023/12/21 12:37:39;;;;;;;0.10;0.10;;;;;;;;;;4862385;29;20210;-61
2023/12/21 12:40:07;;;;;;;0.20;0.10;;;;;;;;;;4859819;29;20221;-60
2023/12/21 12:42:35;;;;;;;0.20;0.20;;;;;;;;;;4859886;29;20273;-60
2023/12/21 12:45:05;;;;;;;0.47;0.10;;;;;;;;;;4856965;29;20211;-60
2023/12/21 12:47:33;;;;;;;0.20;0.20;;;;;;;;;;4857916;29;20230;-60
2023/12/21 12:50:00;;;;;;;0.40;0.40;;;;;;;;;;4862577;29;20213;-60
2023/12/21 12:52:27;;;;;;;0.20;0.20;;;;;;;;;;4861854;29;20221;-61
2023/12/21 12:54:54;;;;;;;0.10;0.10;;;;;;;;;;4859437;29;20218;-60
2023/12/21 12:57:25;;;;;;;0.20;0.20;;;;;;;;;;4864022;29;20206;-60
2023/12/21 12:59:52;;;;;;;0.10;0.10;;;;;;;;;;4864532;29;20214;-60
2023/12/21 13:02:21;;;;;;;0.10;0.10;;;;;;;;;;4863235;29;21089;-60
2023/12/21 13:04:48;;;;;;;1.00;1.00;;;;;;;;;;4863369;29;20226;-60
2023/12/21 13:07:16;;;;;;;0.77;0.77;;;;;;;;;;4854428;29;20207;-60
2023/12/21 13:09:44;;;;;;;0.20;0.20;;;;;;;;;;4864582;29;20230;-59
2023/12/21 13:12:11;;;;;;;0.53;0.53;;;;;;;;;;4868962;29;20233;-60
2023/12/21 13:14:38;;;;;;;0.20;0.20;;;;;;;;;;4863207;29;20223;-60
2023/12/21 13:17:05;;;;;;;0.27;0.27;;;;;;;;;;4871647;29;20218;-61
2023/12/21 13:19:33;;;;;;;0.30;0.30;;;;;;;;;;4859654;29;20241;-61
2023/12/21 13:22:00;;;;;;;0.20;0.20;;;;;;;;;;4867737;29;20351;-60
2023/12/21 13:24:27;;;;;;;0.20;0.20;;;;;;;;;;4872970;29;20228;-61
2023/12/21 13:26:54;;;;;;;0.10;0.10;;;;;;;;;;4871321;29;20296;-61
2023/12/21 13:30:03;;;;;;;0.10;0.10;;;;;;;;;;4869956;29;20741;-61
2023/12/21 13:32:30;;;;;;;0.20;0.10;;;;;;;;;;4868104;29;20202;-61
2023/12/21 13:34:58;;;;;;;0.10;0.10;;;;;;;;;;4867688;29;20213;-61
2023/12/21 13:37:25;;;;;;;0.10;0.10;;;;;;;;;;4864215;29;20221;-60
2023/12/21 13:39:52;;;;;;;0.30;0.10;;;;;;;;;;4872569;29;20214;-78
2023/12/21 13:42:19;;;;;;;0.10;0.10;;;;;;;;;;4860142;29;20661;-72
2023/12/21 13:44:46;;;;;;;2.63;0.20;;;;;;;;;;4872055;29;20206;-73
2023/12/21 13:47:14;;;;;;;0.70;0.13;;;;;;;;;;4866287;29;20300;-59
2023/12/21 13:49:41;;;;;;;0.10;0.10;;;;;;;;;;4868584;29;20457;-60
2023/12/21 13:52:10;;;;;;;0.20;0.20;;;;;;;;;;4868898;29;20224;-61
2023/12/21 13:54:38;;;;;;;0.57;0.20;;;;;;;;;;4871488;29;20217;-61
2023/12/21 13:57:06;;;;;;;0.53;0.10;;;;;;;;;;4872852;29;20696;-62
2023/12/21 13:59:33;;;;;;;0.10;0.10;;;;;;;;;;4871195;29;20214;-61
2023/12/21 14:02:00;;;;;;;0.10;0.10;;;;;;;;;;4870150;29;20222;-62
2023/12/21 14:04:27;;;;;;;0.80;0.50;;;;;;;;;;4864788;29;20681;-61
2023/12/21 14:06:54;;;;;;;0.20;0.20;;;;;;;;;;4871329;29;20228;-61
2023/12/21 14:09:24;;;;;;;0.50;0.50;;;;;;;;;;4866271;29;20685;-60
2023/12/21 14:11:51;;;;;;;0.60;0.27;;;;;;;;;;4873443;29;20333;-60
2023/12/21 14:14:18;;;;;;;0.20;0.20;;;;;;;;;;4866450;29;20218;-61
2023/12/21 14:16:45;;;;;;;0.10;0.10;;;;;;;;;;4864319;29;20272;-61
2023/12/21 14:19:12;;;;;;;1.17;0.20;;;;;;;;;;4862558;29;20230;-61
2023/12/21 14:21:39;;;;;;;0.40;0.40;;;;;;;;;;4859194;29;20242;-61
2023/12/21 14:24:06;;;;;;;0.20;0.20;;;;;;;;;;4857062;29;20218;-61
2023/12/21 14:26:35;;;;;;;0.30;0.30;;;;;;;;;;4872983;29;20225;-61
2023/12/21 14:29:02;;;;;;;1.07;0.50;;;;;;;;;;4862820;29;20233;-62
2023/12/21 14:31:29;;;;;;;1.23;1.13;;;;;;;;;;4865081;29;20241;-60
2023/12/21 14:33:56;;;;;;;0.70;0.70;;;;;;;;;;4872748;29;20214;-61
2023/12/21 14:36:23;;;;;;;0.50;0.50;;;;;;;;;;4872158;29;20209;-61
2023/12/21 14:38:52;;;;;;;0.43;0.43;;;;;;;;;;4867279;29;20221;-62
2023/12/21 14:41:19;;;;;;;0.67;0.60;;;;;;;;;;4864618;29;20210;-62
2023/12/21 14:43:47;;;;;;;0.97;0.50;;;;;;;;;;4863860;29;20748;-62
2023/12/21 14:46:14;;;;;;;0.30;0.30;;;;;;;;;;4865580;29;20235;-62